Ajo, Arizona
Current Conditions -  °F | °C
As of 8:55 PM on Monday 20 Oct 2014 (Local Time) from KGXF Reporting Station
Clear Clear  
Wind Chill: 24°   Ceiling: Unl
Heat Index: 24°   Visibility: 10mi
Dew Point: 10°   Wind: 1mph
Humidity: 41%   Direction: 200°SSW
Pressure: 29.84"   Gusts: NA
Location:  32.37°N, 112.86°W
Report Text: KGXF 210355Z 20001KT 10SM CLR 24/10 A2984 RMK SLP093
Loading
Personal Weather Stations






























Interactive Weather Map
Tropical Storm Tracking
New forecast layout! Learn more

10-Day Weather Forecast

Advertisements
Track Severe Weather on mobile